Time;durP1;ratioP1;P1;durP2;ratioP2;P2;SDS_P1;SDS_P2;PMS_P1;PMS_P2;Temp;Humidity;BMP_temperature;BMP_pressure;BME280_temperature;BME280_humidity;BME280_pressure;Samples;Min_cycle;Max_cycle;Signal;HPM_P1;HPM_P2
2023/06/20 00:00:30;;;;;;;14.48;9.75;;;;;;;16.87;100.00;98170.66;2624474;28;20048;-85
2023/06/20 00:02:06;;;;;;;12.25;9.68;;;;;;;16.72;100.00;98172.38;2625096;28;20056;-86
2023/06/20 00:03:21;;;;;;;11.38;9.60;;;;;;;16.70;100.00;98170.78;2626400;28;20937;-86
2023/06/20 00:04:37;;;;;;;11.07;8.88;;;;;;;16.63;100.00;98171.13;2625018;28;20059;-86
2023/06/20 00:05:52;;;;;;;11.73;9.50;;;;;;;16.47;100.00;98162.38;2624513;28;20518;-86
2023/06/20 00:07:08;;;;;;;13.05;9.38;;;;;;;16.38;100.00;98156.66;2625404;28;20479;-86
2023/06/20 00:08:24;;;;;;;11.35;9.52;;;;;;;16.42;100.00;98149.41;2623415;28;20057;-87
2023/06/20 00:09:39;;;;;;;11.60;8.93;;;;;;;16.25;100.00;98147.72;2623645;28;20040;-87
2023/06/20 00:10:55;;;;;;;11.68;9.18;;;;;;;16.04;100.00;98145.34;2626543;28;20055;-87
2023/06/20 00:12:11;;;;;;;12.50;9.93;;;;;;;15.92;100.00;98138.09;2625611;28;20049;-86
2023/06/20 00:13:26;;;;;;;13.18;9.57;;;;;;;16.03;100.00;98145.41;2625766;28;20601;-86
2023/06/20 00:14:42;;;;;;;12.20;9.40;;;;;;;16.17;100.00;98140.22;2625441;28;20405;-87
2023/06/20 00:15:58;;;;;;;11.80;9.25;;;;;;;16.32;100.00;98137.66;2624184;28;20047;-87
2023/06/20 00:17:13;;;;;;;12.70;9.68;;;;;;;16.20;100.00;98133.94;2623360;28;20454;-87
2023/06/20 00:18:29;;;;;;;13.35;9.52;;;;;;;16.11;100.00;98137.94;2625064;28;20396;-86
2023/06/20 00:19:45;;;;;;;14.23;10.30;;;;;;;16.05;100.00;98136.50;2623948;28;20048;-86
2023/06/20 00:21:00;;;;;;;12.27;9.63;;;;;;;16.28;100.00;98134.34;2623071;28;20049;-87
2023/06/20 00:22:16;;;;;;;12.90;9.70;;;;;;;16.30;100.00;98132.47;2619314;28;20079;-87
2023/06/20 00:23:31;;;;;;;12.38;9.88;;;;;;;16.29;100.00;98135.19;2624834;28;20898;-87
2023/06/20 00:24:47;;;;;;;12.15;9.57;;;;;;;16.30;100.00;98126.31;2624591;28;20048;-87
2023/06/20 00:26:03;;;;;;;13.20;9.77;;;;;;;16.35;100.00;98133.06;2624012;28;20131;-87
2023/06/20 00:27:18;;;;;;;13.00;10.13;;;;;;;16.60;100.00;98122.88;2624220;28;20488;-87
2023/06/20 00:28:34;;;;;;;11.77;9.75;;;;;;;16.50;100.00;98122.56;2624828;28;20083;-87
2023/06/20 00:29:49;;;;;;;12.50;9.65;;;;;;;16.65;100.00;98123.47;2624069;28;20145;-86
2023/06/20 00:31:05;;;;;;;11.60;9.80;;;;;;;16.69;100.00;98126.75;2625169;28;20054;-86
2023/06/20 00:32:20;;;;;;;11.75;9.80;;;;;;;16.63;100.00;98130.63;2624971;28;20071;-86
2023/06/20 00:33:36;;;;;;;13.63;10.02;;;;;;;16.61;100.00;98132.50;2623590;28;20049;-87
2023/06/20 00:34:52;;;;;;;12.48;9.82;;;;;;;16.42;100.00;98151.22;2624211;28;20119;-87
2023/06/20 00:36:07;;;;;;;12.80;10.13;;;;;;;16.19;100.00;98140.97;2623439;28;20045;-86
2023/06/20 00:37:23;;;;;;;15.50;10.05;;;;;;;16.16;100.00;98142.97;2619362;28;20145;-86
2023/06/20 00:38:38;;;;;;;13.23;10.73;;;;;;;16.24;100.00;98141.59;2622069;28;20056;-86
2023/06/20 00:39:54;;;;;;;14.73;10.23;;;;;;;16.38;100.00;98143.44;2624284;28;20396;-86
2023/06/20 00:41:09;;;;;;;12.18;9.65;;;;;;;16.30;100.00;98143.03;2625385;28;20076;-86
2023/06/20 00:42:25;;;;;;;12.98;10.18;;;;;;;16.28;100.00;98144.06;2623337;28;20085;-87
2023/06/20 00:43:41;;;;;;;13.88;10.82;;;;;;;16.22;100.00;98143.47;2623662;28;20055;-86
2023/06/20 00:44:56;;;;;;;11.93;10.05;;;;;;;16.24;100.00;98146.00;2624563;28;20048;-87
2023/06/20 00:46:15;;;;;;;12.27;9.35;;;;;;;16.27;100.00;98140.56;2625746;28;20067;-86
2023/06/20 00:47:31;;;;;;;13.85;9.55;;;;;;;16.30;100.00;98144.81;2623966;28;20462;-86
2023/06/20 00:48:48;;;;;;;12.10;9.32;;;;;;;16.24;100.00;98138.09;2623996;28;20137;-87
2023/06/20 00:50:03;;;;;;;12.38;9.48;;;;;;;16.17;100.00;98142.88;2624411;28;20067;-85
2023/06/20 00:51:22;;;;;;;11.77;9.65;;;;;;;16.03;100.00;98138.38;2623683;28;20100;-87
2023/06/20 00:52:38;;;;;;;11.20;8.90;;;;;;;16.03;100.00;98146.28;2625200;28;20211;-87
2023/06/20 00:53:55;;;;;;;14.63;9.80;;;;;;;15.98;100.00;98147.47;2626329;28;20074;-87
2023/06/20 00:55:12;;;;;;;12.82;10.38;;;;;;;16.06;100.00;98142.59;2623841;28;20118;-87
2023/06/20 00:56:28;;;;;;;14.20;10.15;;;;;;;16.23;100.00;98150.47;2624439;28;20052;-87
2023/06/20 00:57:44;;;;;;;14.68;10.40;;;;;;;16.27;100.00;98152.94;2624347;28;20049;-87
2023/06/20 00:59:03;;;;;;;12.88;9.48;;;;;;;16.03;100.00;98156.84;2625711;28;20072;-87
2023/06/20 01:00:19;;;;;;;13.65;9.95;;;;;;;15.94;100.00;98154.69;2625548;28;20133;-87
2023/06/20 01:01:34;;;;;;;13.70;10.43;;;;;;;16.01;100.00;98150.81;2623431;28;20049;-87
2023/06/20 01:03:11;;;;;;;14.35;9.90;;;;;;;16.04;100.00;98155.03;2624125;28;20044;-87
2023/06/20 01:04:29;;;;;;;11.50;9.20;;;;;;;16.12;100.00;98158.13;2623186;28;20054;-85
2023/06/20 01:06:09;;;;;;;13.45;9.55;;;;;;;16.03;100.00;98158.63;2623700;28;20147;-87
2023/06/20 01:07:44;;;;;;;12.43;9.82;;;;;;;16.04;100.00;98155.91;2624625;28;20071;-87
2023/06/20 01:09:23;;;;;;;12.13;9.65;;;;;;;15.99;100.00;98160.56;2624682;28;20415;-87
2023/06/20 01:10:47;;;;;;;12.18;9.32;;;;;;;16.10;100.00;98154.72;2624629;28;20056;-87
2023/06/20 01:12:07;;;;;;;12.98;8.95;;;;;;;16.05;100.00;98154.97;2612083;28;20115;-87
2023/06/20 01:13:37;;;;;;;13.15;9.75;;;;;;;15.79;100.00;98156.38;2618773;28;20483;-87
2023/06/20 01:15:15;;;;;;;11.57;9.48;;;;;;;15.62;100.00;98152.81;2623259;28;20131;-87
2023/06/20 01:16:59;;;;;;;12.10;9.45;;;;;;;15.46;100.00;98149.31;2626363;28;20563;-85
2023/06/20 01:18:44;;;;;;;14.95;10.25;;;;;;;15.50;100.00;98154.34;2624274;28;20047;-85
2023/06/20 01:20:09;;;;;;;12.02;9.90;;;;;;;15.41;100.00;98149.53;2594321;28;20499;-86
2023/06/20 01:21:39;;;;;;;15.40;10.68;;;;;;;15.67;100.00;98147.31;2624546;28;20047;-85
2023/06/20 01:23:13;;;;;;;13.30;10.32;;;;;;;15.81;100.00;98149.22;2623973;28;20081;-86
2023/06/20 01:24:35;;;;;;;11.80;9.43;;;;;;;15.81;100.00;98151.88;2625253;28;20075;-86
2023/06/20 01:26:09;;;;;;;12.38;10.02;;;;;;;15.81;100.00;98151.88;2623179;28;20502;-85
2023/06/20 01:27:35;;;;;;;12.70;10.15;;;;;;;15.69;100.00;98156.00;2624703;28;20044;-85
2023/06/20 01:28:59;;;;;;;14.30;9.82;;;;;;;15.56;100.00;98145.25;2623045;28;20056;-86
2023/06/20 01:30:24;;;;;;;13.38;10.05;;;;;;;15.45;100.00;98145.84;2622900;28;20123;-86
2023/06/20 01:31:44;;;;;;;13.20;9.95;;;;;;;15.42;100.00;98142.50;2619018;28;20040;-86
2023/06/20 01:33:04;;;;;;;14.35;10.18;;;;;;;15.36;100.00;98139.22;2624204;28;20044;-86
2023/06/20 01:34:24;;;;;;;13.27;10.05;;;;;;;15.33;100.00;98139.41;2622659;28;20045;-86
2023/06/20 01:35:41;;;;;;;13.60;10.68;;;;;;;15.38;100.00;98140.03;2623986;28;20388;-86
2023/06/20 01:36:59;;;;;;;13.45;10.20;;;;;;;15.39;100.00;98136.44;2624645;28;20514;-85
2023/06/20 01:38:17;;;;;;;13.77;10.35;;;;;;;15.36;100.00;98138.38;2623739;28;20052;-87
2023/06/20 01:39:44;;;;;;;13.95;10.18;;;;;;;15.41;100.00;98139.00;2622845;28;20080;-86
2023/06/20 01:41:00;;;;;;;14.23;10.23;;;;;;;15.62;100.00;98139.63;2625461;28;20205;-85
2023/06/20 01:42:19;;;;;;;13.38;10.82;;;;;;;15.67;100.00;98136.75;2623918;28;20048;-85
2023/06/20 01:43:36;;;;;;;14.35;10.32;;;;;;;15.67;100.00;98137.63;2613088;28;20534;-85
2023/06/20 01:44:55;;;;;;;12.55;9.73;;;;;;;15.58;100.00;98137.28;2616971;28;20045;-86
2023/06/20 01:46:14;;;;;;;12.60;10.13;;;;;;;15.37;100.00;98133.06;2625575;28;20040;-86
2023/06/20 01:47:32;;;;;;;13.45;10.40;;;;;;;15.54;100.00;98132.13;2625676;28;20167;-85
2023/06/20 01:48:50;;;;;;;14.32;10.57;;;;;;;15.45;100.00;98134.41;2623090;28;20094;-86
2023/06/20 01:50:07;;;;;;;14.25;11.25;;;;;;;15.34;100.00;98132.34;2624485;28;20048;-85
2023/06/20 01:51:23;;;;;;;14.05;10.32;;;;;;;15.44;100.00;98133.56;2622971;28;20412;-85
2023/06/20 01:52:40;;;;;;;14.05;11.07;;;;;;;15.48;100.00;98127.19;2625215;28;20525;-86
2023/06/20 01:53:57;;;;;;;12.35;10.35;;;;;;;15.51;100.00;98123.56;2624465;28;20045;-85
2023/06/20 01:55:13;;;;;;;12.85;9.95;;;;;;;15.34;100.00;98125.28;2624857;28;20094;-85
2023/06/20 01:56:30;;;;;;;13.50;10.43;;;;;;;15.22;100.00;98116.22;2624816;28;20475;-86
2023/06/20 01:57:46;;;;;;;13.77;10.10;;;;;;;15.36;100.00;98112.84;2625797;28;20053;-85
2023/06/20 01:59:03;;;;;;;12.55;10.07;;;;;;;15.26;100.00;98116.94;2624790;28;20113;-86
2023/06/20 02:00:20;;;;;;;13.32;10.52;;;;;;;15.42;100.00;98116.13;2624787;28;20902;-87
2023/06/20 02:01:36;;;;;;;14.52;10.52;;;;;;;15.46;100.00;98118.50;2623398;28;20238;-86
2023/06/20 02:02:54;;;;;;;12.82;10.32;;;;;;;15.51;100.00;98115.63;2622817;28;20056;-86
2023/06/20 02:04:10;;;;;;;13.45;10.95;;;;;;;15.50;100.00;98116.53;2624371;28;20392;-86
2023/06/20 02:05:29;;;;;;;14.75;10.35;;;;;;;15.45;100.00;98114.19;2625805;28;20063;-86
2023/06/20 02:06:46;;;;;;;14.35;10.82;;;;;;;15.43;100.00;98112.53;2624848;28;20087;-85
2023/06/20 02:08:04;;;;;;;13.30;9.50;;;;;;;15.38;100.00;98116.28;2624507;28;20126;-85
2023/06/20 02:09:19;;;;;;;13.07;10.15;;;;;;;15.43;100.00;98113.38;2618913;28;20056;-86
2023/06/20 02:10:36;;;;;;;12.63;9.70;;;;;;;15.42;100.00;98113.47;2625438;28;20052;-86
2023/06/20 02:11:53;;;;;;;12.50;9.68;;;;;;;15.42;100.00;98121.41;2623806;28;20566;-86
2023/06/20 02:13:09;;;;;;;13.13;9.95;;;;;;;15.22;100.00;98113.59;2625474;28;20048;-86
2023/06/20 02:14:25;;;;;;;13.13;10.52;;;;;;;15.15;100.00;98124.53;2623770;28;20127;-86
2023/06/20 02:15:42;;;;;;;12.90;9.98;;;;;;;15.11;100.00;98116.78;2625917;28;20055;-86
2023/06/20 02:17:01;;;;;;;14.13;10.50;;;;;;;15.29;100.00;98124.69;2622252;28;20051;-86
2023/06/20 02:18:16;;;;;;;13.60;10.38;;;;;;;15.28;100.00;98124.75;2623242;28;20107;-86
2023/06/20 02:19:32;;;;;;;14.20;11.02;;;;;;;15.26;100.00;98122.19;2625860;28;20056;-85
2023/06/20 02:20:53;;;;;;;16.00;11.18;;;;;;;15.25;100.00;98123.97;2624255;28;20052;-85
2023/06/20 02:22:13;;;;;;;13.82;10.98;;;;;;;15.14;100.00;98118.41;2623979;28;20463;-86
2023/06/20 02:23:31;;;;;;;14.73;11.05;;;;;;;15.18;100.00;98119.97;2622063;28;20159;-86
2023/06/20 02:24:49;;;;;;;14.15;10.35;;;;;;;15.27;100.00;98116.00;2625219;28;20059;-86
2023/06/20 02:26:08;;;;;;;13.88;10.95;;;;;;;15.27;100.00;98116.00;2618943;28;20056;-86
2023/06/20 02:27:26;;;;;;;14.13;10.30;;;;;;;15.21;100.00;98116.28;2625259;28;20495;-86
2023/06/20 02:28:45;;;;;;;13.65;10.20;;;;;;;15.07;100.00;98117.88;2622285;28;20048;-86
2023/06/20 02:30:03;;;;;;;13.68;10.15;;;;;;;15.09;100.00;98115.16;2624279;28;20044;-86
2023/06/20 02:31:24;;;;;;;14.40;10.85;;;;;;;15.12;100.00;98120.28;2623555;28;20635;-87
2023/06/20 02:32:42;;;;;;;14.25;10.60;;;;;;;15.14;100.00;98122.84;2624042;28;20048;-86
2023/06/20 02:34:01;;;;;;;13.93;10.40;;;;;;;15.10;100.00;98122.13;2624648;28;20052;-86
2023/06/20 02:35:19;;;;;;;14.68;10.88;;;;;;;14.99;100.00;98135.00;2626010;28;20080;-86
2023/06/20 02:36:36;;;;;;;14.82;9.98;;;;;;;14.89;100.00;98134.63;2623874;28;20412;-86
2023/06/20 02:37:56;;;;;;;11.45;9.82;;;;;;;14.72;100.00;98130.22;2621962;28;20351;-86
2023/06/20 02:39:11;;;;;;;14.75;10.30;;;;;;;14.71;100.00;98134.59;2625127;28;20527;-86
2023/06/20 02:40:27;;;;;;;14.52;10.18;;;;;;;14.66;100.00;98131.31;2622759;28;20067;-86
2023/06/20 02:41:43;;;;;;;16.25;11.18;;;;;;;14.90;100.00;98131.06;2624475;28;20157;-86
2023/06/20 02:42:58;;;;;;;13.88;10.43;;;;;;;14.94;100.00;98136.09;2624762;28;20052;-87
2023/06/20 02:44:14;;;;;;;14.85;10.40;;;;;;;14.94;100.00;98125.56;2626149;28;20059;-85
2023/06/20 02:45:29;;;;;;;14.32;10.65;;;;;;;14.87;100.00;98131.22;2624953;28;20048;-86
2023/06/20 02:47:01;;;;;;;13.52;10.40;;;;;;;14.85;100.00;98131.28;2623882;28;20296;-86
2023/06/20 02:48:27;;;;;;;12.93;9.95;;;;;;;14.99;100.00;98132.38;2626454;28;20048;-86
2023/06/20 02:50:00;;;;;;;12.93;9.95;;;;;;;14.92;100.00;98135.34;2624298;28;20544;-86
2023/06/20 02:51:22;;;;;;;13.15;9.77;;;;;;;14.71;100.00;98137.25;2626516;28;20056;-86
2023/06/20 02:52:49;;;;;;;12.68;10.05;;;;;;;14.52;100.00;98143.41;2624707;28;20470;-86
2023/06/20 02:54:15;;;;;;;17.23;10.30;;;;;;;14.20;100.00;98137.91;2624764;28;20134;-87
2023/06/20 02:55:55;;;;;;;13.85;10.43;;;;;;;14.43;100.00;98140.38;2626650;28;20056;-86
2023/06/20 02:57:15;;;;;;;15.40;10.15;;;;;;;14.38;100.00;98132.69;2624247;28;20060;-86
2023/06/20 02:58:32;;;;;;;14.13;10.75;;;;;;;14.40;100.00;98129.06;2626405;28;20055;-86
2023/06/20 02:59:53;;;;;;;15.50;11.25;;;;;;;14.47;100.00;98140.16;2626781;28;20075;-86
2023/06/20 03:01:10;;;;;;;16.00;12.07;;;;;;;14.34;100.00;98133.78;2625673;28;20422;-85
2023/06/20 03:02:31;;;;;;;14.77;10.98;;;;;;;14.63;100.00;98134.13;2625223;28;20048;-86
2023/06/20 03:03:49;;;;;;;17.10;11.32;;;;;;;14.89;100.00;98137.28;2624801;28;20080;-87
2023/06/20 03:05:09;;;;;;;16.52;11.55;;;;;;;14.91;100.00;98135.41;2625890;28;20047;-87
2023/06/20 03:06:27;;;;;;;17.17;11.85;;;;;;;14.91;100.00;98138.91;2624772;28;20518;-87
2023/06/20 03:07:44;;;;;;;15.93;11.98;;;;;;;14.92;100.00;98137.97;2625252;28;20524;-87
2023/06/20 03:09:02;;;;;;;16.25;11.90;;;;;;;15.03;100.00;98145.34;2624714;28;20044;-89
2023/06/20 03:10:18;;;;;;;20.52;12.00;;;;;;;15.12;100.00;98141.38;2627496;28;20123;-87
2023/06/20 03:11:34;;;;;;;15.15;11.38;;;;;;;15.16;100.00;98142.94;2624934;28;20131;-86
2023/06/20 03:12:50;;;;;;;14.50;11.15;;;;;;;15.17;100.00;98149.03;2624143;28;20491;-87
2023/06/20 03:14:11;;;;;;;18.48;11.25;;;;;;;15.07;100.00;98152.16;2625553;28;20079;-87
2023/06/20 03:15:27;;;;;;;13.40;10.75;;;;;;;15.07;100.00;98149.50;2624179;28;20068;-87
2023/06/20 03:16:43;;;;;;;13.25;10.35;;;;;;;15.03;100.00;98147.13;2625699;28;20053;-88
2023/06/20 03:18:01;;;;;;;16.08;10.57;;;;;;;14.93;100.00;98147.59;2625223;28;20057;-88
2023/06/20 03:19:17;;;;;;;13.38;10.45;;;;;;;14.72;100.00;98138.97;2627034;28;20097;-87
2023/06/20 03:20:33;;;;;;;13.50;10.35;;;;;;;14.67;100.00;98135.69;2624747;28;20507;-87
2023/06/20 03:21:48;;;;;;;16.08;11.32;;;;;;;14.66;100.00;98133.97;2625423;28;20051;-87
2023/06/20 03:23:04;;;;;;;14.52;11.02;;;;;;;14.66;100.00;98139.22;2625575;28;20056;-86
2023/06/20 03:24:19;;;;;;;17.65;11.65;;;;;;;14.95;100.00;98151.00;2625201;28;20052;-88
2023/06/20 03:25:35;;;;;;;16.15;11.70;;;;;;;15.04;100.00;98157.56;2624395;28;20044;-87
2023/06/20 03:26:51;;;;;;;15.98;12.23;;;;;;;15.07;100.00;98154.78;2620380;28;20068;-88
2023/06/20 03:28:06;;;;;;;17.02;12.40;;;;;;;15.12;100.00;98162.47;2623693;28;20063;-87
2023/06/20 03:29:22;;;;;;;15.07;11.65;;;;;;;14.94;100.00;98161.59;2624949;28;20049;-87
2023/06/20 03:30:38;;;;;;;15.02;11.50;;;;;;;14.88;100.00;98161.94;2625715;28;20118;-87
2023/06/20 03:31:54;;;;;;;16.10;12.23;;;;;;;14.92;100.00;98160.84;2620028;28;20078;-86
2023/06/20 03:33:09;;;;;;;17.73;12.27;;;;;;;15.14;100.00;98167.66;2626910;28;20059;-86
2023/06/20 03:34:26;;;;;;;14.40;11.55;;;;;;;15.27;100.00;98171.38;2625969;28;20063;-86
2023/06/20 03:35:41;;;;;;;19.27;11.52;;;;;;;15.32;100.00;98164.06;2625727;28;20051;-89
2023/06/20 03:36:57;;;;;;;18.67;11.45;;;;;;;15.40;100.00;98166.31;2623635;28;20114;-87
2023/06/20 03:38:12;;;;;;;16.08;11.48;;;;;;;15.35;100.00;98166.53;2625664;28;20144;-87
2023/06/20 03:39:28;;;;;;;15.02;10.85;;;;;;;15.15;100.00;98170.22;2623900;28;20051;-87
2023/06/20 03:40:43;;;;;;;15.38;10.80;;;;;;;15.14;100.00;98170.31;2625035;28;20063;-87
2023/06/20 03:41:59;;;;;;;15.80;12.27;;;;;;;15.30;100.00;98175.66;2625430;28;20049;-87
2023/06/20 03:43:14;;;;;;;16.17;11.63;;;;;;;15.34;100.00;98174.56;2624907;28;20047;-87
2023/06/20 03:44:30;;;;;;;17.65;12.27;;;;;;;15.38;100.00;98178.72;2612957;28;20044;-88
2023/06/20 03:45:46;;;;;;;16.23;12.43;;;;;;;15.42;100.00;98168.88;2617200;28;20054;-87
2023/06/20 03:47:01;;;;;;;14.75;11.48;;;;;;;15.42;100.00;98174.16;2625810;28;20565;-87
2023/06/20 03:48:19;;;;;;;14.73;11.20;;;;;;;15.30;100.00;98178.28;2625214;28;20040;-86
2023/06/20 03:49:34;;;;;;;18.48;11.73;;;;;;;15.41;100.00;98185.63;2624171;28;20171;-86
2023/06/20 03:50:50;;;;;;;17.00;12.13;;;;;;;15.42;100.00;98174.16;2625471;28;20040;-86
2023/06/20 03:52:06;;;;;;;19.98;12.48;;;;;;;15.44;100.00;98185.47;2625425;28;20083;-86
2023/06/20 03:53:21;;;;;;;20.05;12.63;;;;;;;15.50;100.00;98183.38;2619901;28;20056;-86
2023/06/20 03:54:41;;;;;;;18.05;12.63;;;;;;;15.49;100.00;98179.03;2625714;28;20499;-87
2023/06/20 03:55:56;;;;;;;14.88;11.73;;;;;;;15.38;100.00;98179.59;2624616;28;20052;-87
2023/06/20 03:57:12;;;;;;;14.95;11.23;;;;;;;15.38;100.00;98176.09;2623440;28;20055;-86
2023/06/20 03:58:27;;;;;;;15.05;11.48;;;;;;;15.27;100.00;98178.44;2623955;28;20040;-87
2023/06/20 03:59:43;;;;;;;16.08;11.65;;;;;;;15.26;100.00;98174.94;2623527;28;20041;-88
2023/06/20 04:00:59;;;;;;;14.88;11.23;;;;;;;15.13;100.00;98168.59;2625164;28;20048;-87
2023/06/20 04:02:14;;;;;;;17.58;11.48;;;;;;;15.18;100.00;98171.84;2625261;28;20043;-88
2023/06/20 04:03:29;;;;;;;14.18;11.20;;;;;;;15.28;100.00;98172.22;2624066;28;20070;-89
2023/06/20 04:04:49;;;;;;;14.85;11.20;;;;;;;15.04;100.00;98167.28;2625091;28;20053;-88
2023/06/20 04:06:06;;;;;;;17.77;11.57;;;;;;;15.15;100.00;98172.84;2625030;28;20560;-88
2023/06/20 04:07:22;;;;;;;17.30;10.75;;;;;;;15.13;100.00;98169.44;2625252;28;20481;-90
2023/06/20 04:08:38;;;;;;;16.30;12.55;;;;;;;15.08;100.00;98172.31;2625437;28;20108;-88
2023/06/20 04:09:53;;;;;;;18.65;12.57;;;;;;;15.28;100.00;98175.72;2624925;28;20072;-88
2023/06/20 04:11:09;;;;;;;16.27;12.25;;;;;;;15.32;100.00;98174.63;2625772;28;20052;-87
2023/06/20 04:12:25;;;;;;;18.40;12.50;;;;;;;15.58;100.00;98179.50;2625209;28;20052;-87
2023/06/20 04:13:40;;;;;;;17.10;12.65;;;;;;;15.58;100.00;98190.88;2624370;28;20040;-86
2023/06/20 04:14:56;;;;;;;14.75;11.85;;;;;;;15.53;100.00;98185.84;2624657;28;20051;-88
2023/06/20 04:16:11;;;;;;;16.73;11.70;;;;;;;15.68;100.00;98189.47;2626038;28;20645;-88
2023/06/20 04:17:27;;;;;;;18.65;11.70;;;;;;;15.75;100.00;98187.34;2624783;28;20044;-88
2023/06/20 04:18:42;;;;;;;16.63;11.98;;;;;;;15.61;100.00;98190.72;2624444;28;20068;-88
2023/06/20 04:20:04;;;;;;;14.60;10.68;;;;;;;15.43;100.00;98189.03;2626656;28;20076;-88
2023/06/20 04:21:19;;;;;;;19.10;12.05;;;;;;;15.39;100.00;98186.56;2622967;28;20044;-88
2023/06/20 04:22:35;;;;;;;16.23;12.45;;;;;;;15.73;100.00;98191.00;2625172;28;20055;-87
2023/06/20 04:23:50;;;;;;;19.42;12.52;;;;;;;15.84;100.00;98191.28;2626705;28;20053;-88
2023/06/20 04:25:07;;;;;;;18.45;12.68;;;;;;;15.95;100.00;98183.69;2623327;28;20052;-88
2023/06/20 04:26:23;;;;;;;18.15;12.57;;;;;;;15.95;100.00;98188.09;2624142;28;20086;-89
2023/06/20 04:27:38;;;;;;;17.05;12.98;;;;;;;16.11;100.00;98188.13;2623420;28;20083;-87
2023/06/20 04:28:54;;;;;;;17.85;12.68;;;;;;;16.07;100.00;98192.72;2623005;28;20040;-87
2023/06/20 04:30:10;;;;;;;16.27;11.48;;;;;;;16.24;100.00;98189.16;2625329;28;20158;-86
2023/06/20 04:31:25;;;;;;;18.27;11.63;;;;;;;15.84;100.00;98191.28;2624113;28;20134;-87
2023/06/20 04:32:41;;;;;;;18.98;11.63;;;;;;;15.81;100.00;98191.47;2623283;28;20537;-87
2023/06/20 04:33:57;;;;;;;14.00;11.35;;;;;;;15.85;100.00;98197.41;2623699;28;20503;-87
2023/06/20 04:35:12;;;;;;;16.60;12.07;;;;;;;15.66;100.00;98199.25;2613874;28;20114;-87
2023/06/20 04:36:28;;;;;;;17.52;12.88;;;;;;;15.90;100.00;98204.16;2617930;28;20040;-88
2023/06/20 04:37:44;;;;;;;17.05;12.27;;;;;;;15.99;100.00;98200.19;2624368;28;20055;-87
2023/06/20 04:39:00;;;;;;;20.95;12.45;;;;;;;16.14;100.00;98209.06;2625583;28;20040;-87
2023/06/20 04:40:15;;;;;;;18.38;12.85;;;;;;;16.18;100.00;98217.69;2623640;28;20114;-87
2023/06/20 04:41:31;;;;;;;15.57;12.05;;;;;;;16.24;100.00;98212.06;2624425;28;20041;-86
2023/06/20 04:42:46;;;;;;;18.15;12.02;;;;;;;16.16;100.00;98212.47;2624172;28;20426;-86
2023/06/20 04:44:02;;;;;;;17.75;13.00;;;;;;;16.35;100.00;98209.69;2613076;28;20330;-86
2023/06/20 04:45:18;;;;;;;17.35;11.48;;;;;;;16.37;100.00;98215.72;2618366;28;20043;-87
2023/06/20 04:46:33;;;;;;;16.80;12.55;;;;;;;16.47;100.00;98205.47;2623937;28;20048;-88
2023/06/20 04:47:50;;;;;;;18.85;12.90;;;;;;;16.37;100.00;98204.31;2612274;28;20049;-88
2023/06/20 04:49:05;;;;;;;18.73;12.27;;;;;;;16.38;100.00;98204.22;2617405;28;20044;-88
2023/06/20 04:50:22;;;;;;;16.42;12.50;;;;;;;16.33;100.00;98202.75;2623435;28;20144;-88
2023/06/20 04:51:40;;;;;;;17.77;12.02;;;;;;;16.44;100.00;98210.13;2623705;28;20255;-88
2023/06/20 04:52:56;;;;;;;17.42;11.85;;;;;;;16.57;100.00;98207.63;2622656;28;20402;-89
2023/06/20 04:54:11;;;;;;;15.95;12.15;;;;;;;16.53;100.00;98201.66;2624387;28;20044;-88
2023/06/20 04:55:27;;;;;;;17.90;12.40;;;;;;;16.61;100.00;98204.72;2623442;28;20063;-89
2023/06/20 04:56:42;;;;;;;18.25;12.25;;;;;;;16.72;100.00;98206.75;2623552;28;20040;-88
2023/06/20 04:57:58;;;;;;;15.98;11.52;;;;;;;16.70;100.00;98202.50;2623642;28;20540;-87
2023/06/20 04:59:13;;;;;;;15.88;11.80;;;;;;;16.81;100.00;98208.00;2623106;28;20040;-94
2023/06/20 05:00:29;;;;;;;16.42;11.63;;;;;;;16.93;100.00;98209.09;2628938;28;20094;-96
2023/06/20 05:01:45;;;;;;;18.80;12.45;;;;;;;16.98;100.00;98211.50;2623722;28;20063;-94
2023/06/20 05:03:00;;;;;;;17.13;12.10;;;;;;;17.13;100.00;98212.41;2622235;28;20048;-85
2023/06/20 05:04:16;;;;;;;14.40;11.65;;;;;;;17.07;100.00;98213.63;2623023;28;20048;-90
2023/06/20 05:05:31;;;;;;;17.35;12.23;;;;;;;17.38;100.00;98216.25;2622225;28;20047;-88
2023/06/20 05:06:47;;;;;;;19.17;12.23;;;;;;;17.46;100.00;98214.84;2619135;28;20048;-87
2023/06/20 05:08:02;;;;;;;17.08;11.80;;;;;;;17.64;100.00;98204.06;2623956;28;20142;-89
2023/06/20 05:09:18;;;;;;;15.73;11.80;;;;;;;17.71;100.00;98194.84;2624425;28;20143;-90
2023/06/20 05:10:34;;;;;;;14.20;11.60;;;;;;;17.76;100.00;98192.75;2625584;28;20048;-88
2023/06/20 05:11:49;;;;;;;15.63;11.48;;;;;;;17.63;100.00;98187.38;2625228;28;20105;-88
2023/06/20 05:13:05;;;;;;;14.95;11.90;;;;;;;17.98;100.00;98188.78;2624539;28;20067;-88
2023/06/20 05:14:20;;;;;;;14.13;11.73;;;;;;;17.87;100.00;98189.41;2624992;28;20048;-87
2023/06/20 05:15:36;;;;;;;13.75;10.55;;;;;;;18.06;100.00;98193.63;2622631;28;20487;-88
2023/06/20 05:16:52;;;;;;;17.08;11.57;;;;;;;18.01;100.00;98191.22;2619168;28;20063;-88
2023/06/20 05:18:07;;;;;;;14.35;10.88;;;;;;;18.10;100.00;98197.78;2611822;28;20049;-87
2023/06/20 05:19:23;;;;;;;15.55;11.30;;;;;;;18.18;100.00;98200.78;2617984;28;20048;-87
2023/06/20 05:20:38;;;;;;;13.75;10.75;;;;;;;18.22;100.00;98206.72;2619006;28;20048;-87
2023/06/20 05:21:54;;;;;;;15.13;10.18;;;;;;;18.10;100.00;98203.06;2623546;28;20048;-87
2023/06/20 05:23:09;;;;;;;19.40;11.25;;;;;;;18.20;100.00;98205.97;2623506;28;20052;-88
2023/06/20 05:24:25;;;;;;;14.55;10.73;;;;;;;18.32;100.00;98209.66;2622850;28;20048;-89
2023/06/20 05:25:40;;;;;;;16.38;11.18;;;;;;;18.39;100.00;98208.31;2623693;28;20048;-88
2023/06/20 05:26:56;;;;;;;14.63;11.25;;;;;;;18.39;100.00;98205.66;2623967;28;20047;-89
2023/06/20 05:28:12;;;;;;;15.45;10.68;;;;;;;18.58;100.00;98215.09;2623475;28;20052;-88
2023/06/20 05:29:27;;;;;;;13.98;10.73;;;;;;;18.67;100.00;98218.97;2623057;28;20463;-88
2023/06/20 05:30:43;;;;;;;16.83;11.77;;;;;;;18.60;100.00;98215.84;2623950;28;20483;-88
2023/06/20 05:31:58;;;;;;;13.88;11.45;;;;;;;18.80;100.00;98211.03;2624644;28;20419;-87
2023/06/20 05:33:15;;;;;;;14.15;11.07;;;;;;;18.84;100.00;98224.00;2625001;28;20103;-87
2023/06/20 05:34:30;;;;;;;16.13;11.50;;;;;;;18.90;100.00;98212.13;2625832;28;20052;-87
2023/06/20 05:35:46;;;;;;;17.27;11.77;;;;;;;18.88;100.00;98224.66;2623520;28;20059;-87
2023/06/20 05:37:01;;;;;;;15.10;11.70;;;;;;;18.90;100.00;98225.41;2624350;28;20053;-87
2023/06/20 05:38:17;;;;;;;16.50;11.35;;;;;;;19.05;100.00;98220.91;2624477;28;20044;-87
2023/06/20 05:39:33;;;;;;;14.68;11.35;;;;;;;19.04;100.00;98220.06;2622843;28;20476;-88
2023/06/20 05:40:48;;;;;;;14.95;11.63;;;;;;;19.09;100.00;98221.53;2619007;28;20372;-87
2023/06/20 05:42:04;;;;;;;15.63;11.70;;;;;;;19.14;100.00;98217.63;2625830;28;20401;-86
2023/06/20 05:43:20;;;;;;;15.82;12.20;;;;;;;19.11;100.00;98224.94;2622840;28;20548;-88
2023/06/20 05:44:36;;;;;;;16.13;11.38;;;;;;;19.29;100.00;98221.06;2624561;28;20055;-87
2023/06/20 05:45:52;;;;;;;20.63;11.10;;;;;;;19.34;100.00;98234.88;2623456;28;20109;-87
2023/06/20 05:47:08;;;;;;;15.88;11.75;;;;;;;19.44;100.00;98224.47;2625316;28;20048;-87
2023/06/20 05:48:25;;;;;;;14.18;10.93;;;;;;;19.14;100.00;98230.06;2623689;28;20102;-88
2023/06/20 05:49:40;;;;;;;17.52;11.45;;;;;;;19.19;100.00;98238.56;2622729;28;20084;-87
2023/06/20 05:50:56;;;;;;;16.70;11.88;;;;;;;19.20;100.00;98235.78;2624565;28;20059;-88
2023/06/20 05:52:12;;;;;;;19.70;11.57;;;;;;;19.43;100.00;98240.53;2623373;28;20040;-89
2023/06/20 05:53:27;;;;;;;18.17;11.27;;;;;;;19.51;100.00;98232.88;2623457;28;20403;-88
2023/06/20 05:54:43;;;;;;;13.45;10.93;;;;;;;19.67;100.00;98229.16;2619071;28;20127;-87